Baltimore, Maryland
Traffic Map
Current Weather Conditions
Baltimore, Maryland
Broken Clouds
Broken Clouds
18°
Feels Like: 18°
Wind Chill: 18° Ceiling: 25000
Heat Index: 18° Visibility: 10mi
Dew Point: Wind: 9mph
Humidity: 34% Direction: 70° (ENE)
Pressure: 30.26in Gusts: 0mph
Raw Report DataKBWI 191654Z 07008KT 10SM FEW200 BKN250 18/02 A3026 RMK AO2 SLP245 T01780017
Traffic Incident Summary
Active as of:
Severity:
Category:
InformationThere was an issue retrieving the traffic information for this location. Please try a different location or try again shortly.
Advertisements
At Last! Intellicast now available for iPhone and Android